sensor_id;sensor_type;location;lat;lon;timestamp;temperature;humidity
9083;DHT22;4577;48.704;9.000;2023-08-08T00:01:07;13.90;94.30
9083;DHT22;4577;48.704;9.000;2023-08-08T00:03:33;13.90;94.30
9083;DHT22;4577;48.704;9.000;2023-08-08T00:06:00;14.00;94.60
9083;DHT22;4577;48.704;9.000;2023-08-08T00:08:25;13.90;94.60
9083;DHT22;4577;48.704;9.000;2023-08-08T00:10:51;13.90;94.50
9083;DHT22;4577;48.704;9.000;2023-08-08T00:13:17;13.90;94.70
9083;DHT22;4577;48.704;9.000;2023-08-08T00:15:43;13.90;94.70
9083;DHT22;4577;48.704;9.000;2023-08-08T00:18:08;13.90;94.60
9083;DHT22;4577;48.704;9.000;2023-08-08T00:20:34;12.60;94.00
9083;DHT22;4577;48.704;9.000;2023-08-08T00:23:00;14.00;94.70
9083;DHT22;4577;48.704;9.000;2023-08-08T00:25:26;14.00;94.90
9083;DHT22;4577;48.704;9.000;2023-08-08T00:27:51;14.10;94.60
9083;DHT22;4577;48.704;9.000;2023-08-08T00:30:17;14.00;94.80
9083;DHT22;4577;48.704;9.000;2023-08-08T00:32:43;14.00;95.00
9083;DHT22;4577;48.704;9.000;2023-08-08T00:35:09;14.00;94.90
9083;DHT22;4577;48.704;9.000;2023-08-08T00:37:34;14.00;95.10
9083;DHT22;4577;48.704;9.000;2023-08-08T00:40:00;14.00;95.10
9083;DHT22;4577;48.704;9.000;2023-08-08T00:42:26;14.00;95.40
9083;DHT22;4577;48.704;9.000;2023-08-08T00:44:52;14.00;95.00
9083;DHT22;4577;48.704;9.000;2023-08-08T00:47:17;14.10;95.00
9083;DHT22;4577;48.704;9.000;2023-08-08T00:49:43;14.10;94.90
9083;DHT22;4577;48.704;9.000;2023-08-08T00:52:12;14.10;95.00
9083;DHT22;4577;48.704;9.000;2023-08-08T00:54:39;14.10;95.20
9083;DHT22;4577;48.704;9.000;2023-08-08T00:57:05;14.20;95.30
9083;DHT22;4577;48.704;9.000;2023-08-08T00:59:31;14.10;95.30
9083;DHT22;4577;48.704;9.000;2023-08-08T01:01:58;14.10;95.40
9083;DHT22;4577;48.704;9.000;2023-08-08T01:04:25;14.10;95.60
9083;DHT22;4577;48.704;9.000;2023-08-08T01:06:58;14.10;95.60
9083;DHT22;4577;48.704;9.000;2023-08-08T01:09:39;14.00;95.70
9083;DHT22;4577;48.704;9.000;2023-08-08T01:12:08;14.10;96.10
9083;DHT22;4577;48.704;9.000;2023-08-08T01:14:37;14.10;95.50
9083;DHT22;4577;48.704;9.000;2023-08-08T01:17:04;14.20;95.40
9083;DHT22;4577;48.704;9.000;2023-08-08T01:19:31;14.20;95.60
9083;DHT22;4577;48.704;9.000;2023-08-08T01:22:05;14.10;95.80
9083;DHT22;4577;48.704;9.000;2023-08-08T01:24:32;14.00;95.90
9083;DHT22;4577;48.704;9.000;2023-08-08T01:27:02;14.00;95.90
9083;DHT22;4577;48.704;9.000;2023-08-08T01:29:28;14.00;96.00
9083;DHT22;4577;48.704;9.000;2023-08-08T01:31:54;14.10;96.20
9083;DHT22;4577;48.704;9.000;2023-08-08T01:34:20;14.10;96.20
9083;DHT22;4577;48.704;9.000;2023-08-08T01:36:59;14.00;96.20
9083;DHT22;4577;48.704;9.000;2023-08-08T01:39:30;14.00;96.40
9083;DHT22;4577;48.704;9.000;2023-08-08T01:41:56;13.90;96.60
9083;DHT22;4577;48.704;9.000;2023-08-08T01:44:24;13.90;96.70
9083;DHT22;4577;48.704;9.000;2023-08-08T01:46:51;13.90;96.80
9083;DHT22;4577;48.704;9.000;2023-08-08T01:49:17;13.90;96.90
9083;DHT22;4577;48.704;9.000;2023-08-08T01:51:43;13.90;96.90
9083;DHT22;4577;48.704;9.000;2023-08-08T01:54:09;13.90;97.10
9083;DHT22;4577;48.704;9.000;2023-08-08T01:56:34;13.90;97.10
9083;DHT22;4577;48.704;9.000;2023-08-08T01:59:00;13.80;97.20
9083;DHT22;4577;48.704;9.000;2023-08-08T02:01:26;13.80;97.40
9083;DHT22;4577;48.704;9.000;2023-08-08T02:03:52;13.90;97.30
9083;DHT22;4577;48.704;9.000;2023-08-08T02:06:18;13.90;97.30
9083;DHT22;4577;48.704;9.000;2023-08-08T02:08:44;13.80;97.40
9083;DHT22;4577;48.704;9.000;2023-08-08T02:11:10;13.70;97.40
9083;DHT22;4577;48.704;9.000;2023-08-08T02:13:36;13.80;97.60
9083;DHT22;4577;48.704;9.000;2023-08-08T02:16:02;13.90;97.60
9083;DHT22;4577;48.704;9.000;2023-08-08T02:18:28;13.70;97.80
9083;DHT22;4577;48.704;9.000;2023-08-08T02:20:53;13.80;97.60
9083;DHT22;4577;48.704;9.000;2023-08-08T02:23:19;13.80;97.60
9083;DHT22;4577;48.704;9.000;2023-08-08T02:25:45;13.90;97.40
9083;DHT22;4577;48.704;9.000;2023-08-08T02:28:10;13.90;97.40
9083;DHT22;4577;48.704;9.000;2023-08-08T02:30:38;13.90;97.60
9083;DHT22;4577;48.704;9.000;2023-08-08T02:33:04;13.80;97.70
9083;DHT22;4577;48.704;9.000;2023-08-08T02:35:29;13.70;97.80
9083;DHT22;4577;48.704;9.000;2023-08-08T02:37:55;14.00;97.80
9083;DHT22;4577;48.704;9.000;2023-08-08T02:40:21;13.80;97.50
9083;DHT22;4577;48.704;9.000;2023-08-08T02:42:49;13.70;97.70
9083;DHT22;4577;48.704;9.000;2023-08-08T02:45:15;13.70;97.80
9083;DHT22;4577;48.704;9.000;2023-08-08T02:47:40;13.70;97.80
9083;DHT22;4577;48.704;9.000;2023-08-08T02:50:06;13.70;98.20
9083;DHT22;4577;48.704;9.000;2023-08-08T02:52:32;13.70;98.40
9083;DHT22;4577;48.704;9.000;2023-08-08T02:54:58;13.70;98.30
9083;DHT22;4577;48.704;9.000;2023-08-08T02:57:23;13.60;98.20
9083;DHT22;4577;48.704;9.000;2023-08-08T02:59:49;13.60;98.20
9083;DHT22;4577;48.704;9.000;2023-08-08T03:02:15;13.60;98.00
9083;DHT22;4577;48.704;9.000;2023-08-08T03:04:40;13.60;98.80
9083;DHT22;4577;48.704;9.000;2023-08-08T03:07:06;13.50;99.10
9083;DHT22;4577;48.704;9.000;2023-08-08T03:09:32;13.50;98.70
9083;DHT22;4577;48.704;9.000;2023-08-08T03:11:58;13.50;98.90
9083;DHT22;4577;48.704;9.000;2023-08-08T03:14:23;13.50;98.90
9083;DHT22;4577;48.704;9.000;2023-08-08T03:16:49;13.50;99.10
9083;DHT22;4577;48.704;9.000;2023-08-08T03:19:15;13.50;99.60
9083;DHT22;4577;48.704;9.000;2023-08-08T03:21:40;13.50;99.20
9083;DHT22;4577;48.704;9.000;2023-08-08T03:24:06;13.50;99.00
9083;DHT22;4577;48.704;9.000;2023-08-08T03:26:32;13.50;99.20
9083;DHT22;4577;48.704;9.000;2023-08-08T03:28:57;13.50;99.30
9083;DHT22;4577;48.704;9.000;2023-08-08T03:31:23;13.50;99.10
9083;DHT22;4577;48.704;9.000;2023-08-08T03:33:51;13.50;99.10
9083;DHT22;4577;48.704;9.000;2023-08-08T03:36:17;13.60;99.00
9083;DHT22;4577;48.704;9.000;2023-08-08T03:38:42;13.60;99.20
9083;DHT22;4577;48.704;9.000;2023-08-08T03:41:11;13.60;99.30
9083;DHT22;4577;48.704;9.000;2023-08-08T03:43:38;13.60;99.20
9083;DHT22;4577;48.704;9.000;2023-08-08T03:46:04;13.60;99.40
9083;DHT22;4577;48.704;9.000;2023-08-08T03:48:30;13.60;99.70
9083;DHT22;4577;48.704;9.000;2023-08-08T03:50:55;13.60;99.80
9083;DHT22;4577;48.704;9.000;2023-08-08T03:53:21;13.70;99.80
9083;DHT22;4577;48.704;9.000;2023-08-08T03:55:47;13.70;99.90
9083;DHT22;4577;48.704;9.000;2023-08-08T03:58:12;13.70;99.90
9083;DHT22;4577;48.704;9.000;2023-08-08T04:00:38;13.70;99.90
9083;DHT22;4577;48.704;9.000;2023-08-08T04:03:12;13.60;99.90
9083;DHT22;4577;48.704;9.000;2023-08-08T04:05:37;13.70;99.90
9083;DHT22;4577;48.704;9.000;2023-08-08T04:08:03;13.60;99.90
9083;DHT22;4577;48.704;9.000;2023-08-08T04:10:29;13.70;99.90
9083;DHT22;4577;48.704;9.000;2023-08-08T04:12:54;13.70;99.90
9083;DHT22;4577;48.704;9.000;2023-08-08T04:15:20;13.70;99.90
9083;DHT22;4577;48.704;9.000;2023-08-08T04:17:46;13.70;99.90
9083;DHT22;4577;48.704;9.000;2023-08-08T04:20:11;13.70;99.90
9083;DHT22;4577;48.704;9.000;2023-08-08T04:22:38;13.60;99.90
9083;DHT22;4577;48.704;9.000;2023-08-08T04:25:04;13.60;99.90
9083;DHT22;4577;48.704;9.000;2023-08-08T04:27:30;13.60;99.90
9083;DHT22;4577;48.704;9.000;2023-08-08T04:29:56;13.50;99.90
9083;DHT22;4577;48.704;9.000;2023-08-08T04:32:21;13.60;99.90
9083;DHT22;4577;48.704;9.000;2023-08-08T04:34:47;13.60;99.90
9083;DHT22;4577;48.704;9.000;2023-08-08T04:37:13;13.60;99.90
9083;DHT22;4577;48.704;9.000;2023-08-08T04:39:38;13.50;99.90
9083;DHT22;4577;48.704;9.000;2023-08-08T04:42:04;13.50;99.90
9083;DHT22;4577;48.704;9.000;2023-08-08T04:44:30;13.50;99.90
9083;DHT22;4577;48.704;9.000;2023-08-08T04:46:56;13.60;99.90
9083;DHT22;4577;48.704;9.000;2023-08-08T04:49:21;13.60;99.90
9083;DHT22;4577;48.704;9.000;2023-08-08T04:51:47;13.60;99.90
9083;DHT22;4577;48.704;9.000;2023-08-08T04:54:13;13.60;99.90
9083;DHT22;4577;48.704;9.000;2023-08-08T04:56:38;13.60;99.90
9083;DHT22;4577;48.704;9.000;2023-08-08T04:59:04;13.60;99.90
9083;DHT22;4577;48.704;9.000;2023-08-08T05:01:30;13.60;99.90
9083;DHT22;4577;48.704;9.000;2023-08-08T05:03:55;13.50;99.90
9083;DHT22;4577;48.704;9.000;2023-08-08T05:06:21;13.50;99.90
9083;DHT22;4577;48.704;9.000;2023-08-08T05:08:49;13.50;99.90
9083;DHT22;4577;48.704;9.000;2023-08-08T05:11:15;13.60;99.90
9083;DHT22;4577;48.704;9.000;2023-08-08T05:13:41;13.60;99.90
9083;DHT22;4577;48.704;9.000;2023-08-08T05:16:08;13.60;99.90
9083;DHT22;4577;48.704;9.000;2023-08-08T05:18:34;13.60;99.90
9083;DHT22;4577;48.704;9.000;2023-08-08T05:21:00;13.70;99.90
9083;DHT22;4577;48.704;9.000;2023-08-08T05:23:25;13.70;99.90
9083;DHT22;4577;48.704;9.000;2023-08-08T05:25:51;13.70;99.90
9083;DHT22;4577;48.704;9.000;2023-08-08T05:28:17;13.70;99.70
9083;DHT22;4577;48.704;9.000;2023-08-08T05:30:42;13.70;99.90
9083;DHT22;4577;48.704;9.000;2023-08-08T05:33:08;13.70;99.90
9083;DHT22;4577;48.704;9.000;2023-08-08T05:35:34;13.70;99.80
9083;DHT22;4577;48.704;9.000;2023-08-08T05:38:00;13.80;99.90
9083;DHT22;4577;48.704;9.000;2023-08-08T05:40:26;13.40;99.90
9083;DHT22;4577;48.704;9.000;2023-08-08T05:42:52;13.70;99.90
9083;DHT22;4577;48.704;9.000;2023-08-08T05:45:17;13.70;99.80
9083;DHT22;4577;48.704;9.000;2023-08-08T05:47:43;13.70;99.80
9083;DHT22;4577;48.704;9.000;2023-08-08T05:50:09;13.70;99.90
9083;DHT22;4577;48.704;9.000;2023-08-08T05:52:35;13.50;99.90
9083;DHT22;4577;48.704;9.000;2023-08-08T05:55:00;13.70;99.90
9083;DHT22;4577;48.704;9.000;2023-08-08T05:57:26;13.80;99.90
9083;DHT22;4577;48.704;9.000;2023-08-08T05:59:52;13.80;99.90
9083;DHT22;4577;48.704;9.000;2023-08-08T06:02:18;13.80;99.90
9083;DHT22;4577;48.704;9.000;2023-08-08T06:04:43;13.80;99.90
9083;DHT22;4577;48.704;9.000;2023-08-08T06:09:36;13.80;99.90
9083;DHT22;4577;48.704;9.000;2023-08-08T06:12:03;13.90;99.90
9083;DHT22;4577;48.704;9.000;2023-08-08T06:14:30;13.90;99.90
9083;DHT22;4577;48.704;9.000;2023-08-08T06:19:22;14.00;99.40
9083;DHT22;4577;48.704;9.000;2023-08-08T06:21:48;14.20;99.40
9083;DHT22;4577;48.704;9.000;2023-08-08T06:24:14;14.10;99.50
9083;DHT22;4577;48.704;9.000;2023-08-08T06:26:40;14.20;99.40
9083;DHT22;4577;48.704;9.000;2023-08-08T06:29:06;14.30;99.00
9083;DHT22;4577;48.704;9.000;2023-08-08T06:31:32;14.40;98.90
9083;DHT22;4577;48.704;9.000;2023-08-08T06:33:57;14.50;98.70
9083;DHT22;4577;48.704;9.000;2023-08-08T06:36:23;14.60;98.30
9083;DHT22;4577;48.704;9.000;2023-08-08T06:38:49;14.60;98.20
9083;DHT22;4577;48.704;9.000;2023-08-08T06:41:14;14.70;97.90
9083;DHT22;4577;48.704;9.000;2023-08-08T06:43:40;14.50;97.70
9083;DHT22;4577;48.704;9.000;2023-08-08T06:46:06;14.70;97.80
9083;DHT22;4577;48.704;9.000;2023-08-08T06:48:32;14.90;97.60
9083;DHT22;4577;48.704;9.000;2023-08-08T06:50:57;14.90;97.80
9083;DHT22;4577;48.704;9.000;2023-08-08T06:53:23;15.00;97.50
9083;DHT22;4577;48.704;9.000;2023-08-08T06:55:49;15.10;96.90
9083;DHT22;4577;48.704;9.000;2023-08-08T06:58:15;15.20;97.00
9083;DHT22;4577;48.704;9.000;2023-08-08T07:00:40;15.20;96.30
9083;DHT22;4577;48.704;9.000;2023-08-08T07:03:06;15.30;96.40
9083;DHT22;4577;48.704;9.000;2023-08-08T07:05:32;15.30;95.90
9083;DHT22;4577;48.704;9.000;2023-08-08T07:07:57;15.10;95.10
9083;DHT22;4577;48.704;9.000;2023-08-08T07:10:23;15.50;95.60
9083;DHT22;4577;48.704;9.000;2023-08-08T07:12:49;15.50;95.60
9083;DHT22;4577;48.704;9.000;2023-08-08T07:15:15;15.50;95.10
9083;DHT22;4577;48.704;9.000;2023-08-08T07:17:41;15.50;95.00
9083;DHT22;4577;48.704;9.000;2023-08-08T07:20:07;15.50;94.90
9083;DHT22;4577;48.704;9.000;2023-08-08T07:22:33;15.50;94.80
9083;DHT22;4577;48.704;9.000;2023-08-08T07:24:59;15.60;94.60
9083;DHT22;4577;48.704;9.000;2023-08-08T07:27:26;15.60;94.20
9083;DHT22;4577;48.704;9.000;2023-08-08T07:29:53;15.70;94.60
9083;DHT22;4577;48.704;9.000;2023-08-08T07:32:18;15.70;93.80
9083;DHT22;4577;48.704;9.000;2023-08-08T07:34:44;15.90;94.10
9083;DHT22;4577;48.704;9.000;2023-08-08T07:37:10;15.90;93.50
9083;DHT22;4577;48.704;9.000;2023-08-08T07:39:36;15.90;93.60
9083;DHT22;4577;48.704;9.000;2023-08-08T07:42:02;16.00;93.80
9083;DHT22;4577;48.704;9.000;2023-08-08T07:44:27;16.00;93.50
9083;DHT22;4577;48.704;9.000;2023-08-08T07:46:53;16.00;93.20
9083;DHT22;4577;48.704;9.000;2023-08-08T07:49:19;16.10;93.50
9083;DHT22;4577;48.704;9.000;2023-08-08T07:51:45;16.10;93.10
9083;DHT22;4577;48.704;9.000;2023-08-08T07:54:10;16.10;93.30
9083;DHT22;4577;48.704;9.000;2023-08-08T07:56:36;16.20;92.90
9083;DHT22;4577;48.704;9.000;2023-08-08T07:59:02;16.20;92.70
9083;DHT22;4577;48.704;9.000;2023-08-08T08:01:28;16.30;92.10
9083;DHT22;4577;48.704;9.000;2023-08-08T08:03:54;16.40;92.50
9083;DHT22;4577;48.704;9.000;2023-08-08T08:06:20;16.40;92.30
9083;DHT22;4577;48.704;9.000;2023-08-08T08:08:46;16.40;92.00
9083;DHT22;4577;48.704;9.000;2023-08-08T08:11:11;16.50;91.80
9083;DHT22;4577;48.704;9.000;2023-08-08T08:13:39;16.50;91.60
9083;DHT22;4577;48.704;9.000;2023-08-08T08:16:04;16.50;91.40
9083;DHT22;4577;48.704;9.000;2023-08-08T08:18:31;16.50;91.50
9083;DHT22;4577;48.704;9.000;2023-08-08T08:20:57;16.60;91.50
9083;DHT22;4577;48.704;9.000;2023-08-08T08:23:23;16.50;91.30
9083;DHT22;4577;48.704;9.000;2023-08-08T08:25:49;16.50;91.60
9083;DHT22;4577;48.704;9.000;2023-08-08T08:28:16;16.50;91.30
9083;DHT22;4577;48.704;9.000;2023-08-08T08:30:42;16.50;91.50
9083;DHT22;4577;48.704;9.000;2023-08-08T08:35:35;16.60;91.30
9083;DHT22;4577;48.704;9.000;2023-08-08T08:38:01;16.60;91.30
9083;DHT22;4577;48.704;9.000;2023-08-08T08:40:28;16.60;91.20
9083;DHT22;4577;48.704;9.000;2023-08-08T08:42:55;16.50;91.10
9083;DHT22;4577;48.704;9.000;2023-08-08T08:45:21;16.60;91.50
9083;DHT22;4577;48.704;9.000;2023-08-08T08:47:49;16.70;91.20
9083;DHT22;4577;48.704;9.000;2023-08-08T08:50:19;16.70;91.50
9083;DHT22;4577;48.704;9.000;2023-08-08T08:52:45;16.80;91.60
9083;DHT22;4577;48.704;9.000;2023-08-08T08:55:11;16.90;91.60
9083;DHT22;4577;48.704;9.000;2023-08-08T08:57:36;16.90;91.50
9083;DHT22;4577;48.704;9.000;2023-08-08T09:00:03;16.90;91.40
9083;DHT22;4577;48.704;9.000;2023-08-08T09:02:31;17.00;91.20
9083;DHT22;4577;48.704;9.000;2023-08-08T09:04:58;17.00;90.50
9083;DHT22;4577;48.704;9.000;2023-08-08T09:07:26;17.10;90.30
9083;DHT22;4577;48.704;9.000;2023-08-08T09:09:53;17.10;90.20
9083;DHT22;4577;48.704;9.000;2023-08-08T09:12:18;17.00;90.20
9083;DHT22;4577;48.704;9.000;2023-08-08T09:14:44;17.10;90.10
9083;DHT22;4577;48.704;9.000;2023-08-08T09:17:11;17.10;89.80
9083;DHT22;4577;48.704;9.000;2023-08-08T09:19:38;17.20;87.40
9083;DHT22;4577;48.704;9.000;2023-08-08T09:22:03;17.20;86.20
9083;DHT22;4577;48.704;9.000;2023-08-08T09:24:29;17.30;84.40
9083;DHT22;4577;48.704;9.000;2023-08-08T09:26:55;17.20;85.10
9083;DHT22;4577;48.704;9.000;2023-08-08T09:29:21;17.30;86.10
9083;DHT22;4577;48.704;9.000;2023-08-08T09:31:47;17.40;86.60
9083;DHT22;4577;48.704;9.000;2023-08-08T09:34:13;17.40;86.60
9083;DHT22;4577;48.704;9.000;2023-08-08T09:36:40;17.50;80.40
9083;DHT22;4577;48.704;9.000;2023-08-08T09:39:06;17.50;81.10
9083;DHT22;4577;48.704;9.000;2023-08-08T09:41:32;17.60;81.70
9083;DHT22;4577;48.704;9.000;2023-08-08T09:43:59;17.70;83.70
9083;DHT22;4577;48.704;9.000;2023-08-08T09:46:25;17.90;81.90
9083;DHT22;4577;48.704;9.000;2023-08-08T09:48:51;17.80;83.50
9083;DHT22;4577;48.704;9.000;2023-08-08T09:51:18;17.80;83.60
9083;DHT22;4577;48.704;9.000;2023-08-08T09:53:45;17.80;82.30
9083;DHT22;4577;48.704;9.000;2023-08-08T09:56:14;17.80;82.70
9083;DHT22;4577;48.704;9.000;2023-08-08T09:58:40;18.20;82.10
9083;DHT22;4577;48.704;9.000;2023-08-08T10:01:07;17.90;82.00
9083;DHT22;4577;48.704;9.000;2023-08-08T10:03:33;17.90;83.10
9083;DHT22;4577;48.704;9.000;2023-08-08T10:06:01;17.90;83.10
9083;DHT22;4577;48.704;9.000;2023-08-08T10:08:27;18.00;82.20
9083;DHT22;4577;48.704;9.000;2023-08-08T10:10:53;18.10;80.60
9083;DHT22;4577;48.704;9.000;2023-08-08T10:13:26;18.10;80.60
9083;DHT22;4577;48.704;9.000;2023-08-08T10:15:52;18.30;80.90
9083;DHT22;4577;48.704;9.000;2023-08-08T10:18:21;18.20;78.70
9083;DHT22;4577;48.704;9.000;2023-08-08T10:20:48;18.20;79.30
9083;DHT22;4577;48.704;9.000;2023-08-08T10:23:19;18.40;74.10
9083;DHT22;4577;48.704;9.000;2023-08-08T10:25:50;18.30;74.60
9083;DHT22;4577;48.704;9.000;2023-08-08T10:28:18;18.30;75.30
9083;DHT22;4577;48.704;9.000;2023-08-08T10:30:55;18.30;76.70
9083;DHT22;4577;48.704;9.000;2023-08-08T10:33:22;18.50;77.00
9083;DHT22;4577;48.704;9.000;2023-08-08T10:38:45;18.60;76.10
9083;DHT22;4577;48.704;9.000;2023-08-08T10:41:16;18.50;72.90
9083;DHT22;4577;48.704;9.000;2023-08-08T10:43:56;18.30;71.40
9083;DHT22;4577;48.704;9.000;2023-08-08T10:46:30;18.40;71.10
9083;DHT22;4577;48.704;9.000;2023-08-08T10:48:58;18.40;70.00
9083;DHT22;4577;48.704;9.000;2023-08-08T10:51:46;18.50;71.60
9083;DHT22;4577;48.704;9.000;2023-08-08T10:54:23;18.60;70.90
9083;DHT22;4577;48.704;9.000;2023-08-08T10:56:57;18.60;71.50
9083;DHT22;4577;48.704;9.000;2023-08-08T10:59:37;18.80;70.20
9083;DHT22;4577;48.704;9.000;2023-08-08T11:02:05;18.60;66.20
9083;DHT22;4577;48.704;9.000;2023-08-08T11:04:31;18.50;62.90
9083;DHT22;4577;48.704;9.000;2023-08-08T11:06:58;18.60;64.40
9083;DHT22;4577;48.704;9.000;2023-08-08T11:11:51;18.80;65.10
9083;DHT22;4577;48.704;9.000;2023-08-08T11:14:19;19.00;67.40
9083;DHT22;4577;48.704;9.000;2023-08-08T11:16:46;19.10;66.00
9083;DHT22;4577;48.704;9.000;2023-08-08T11:19:12;19.10;67.00
9083;DHT22;4577;48.704;9.000;2023-08-08T11:21:41;19.20;66.20
9083;DHT22;4577;48.704;9.000;2023-08-08T11:24:07;19.30;65.50
9083;DHT22;4577;48.704;9.000;2023-08-08T11:26:35;19.10;61.80
9083;DHT22;4577;48.704;9.000;2023-08-08T11:29:02;19.20;62.50
9083;DHT22;4577;48.704;9.000;2023-08-08T11:31:28;19.30;62.50
9083;DHT22;4577;48.704;9.000;2023-08-08T11:33:55;19.20;63.30
9083;DHT22;4577;48.704;9.000;2023-08-08T11:36:22;19.10;63.00
9083;DHT22;4577;48.704;9.000;2023-08-08T11:38:50;19.10;63.40
9083;DHT22;4577;48.704;9.000;2023-08-08T11:41:19;19.10;63.80
9083;DHT22;4577;48.704;9.000;2023-08-08T11:43:45;19.10;61.80
9083;DHT22;4577;48.704;9.000;2023-08-08T11:46:15;19.10;60.30
9083;DHT22;4577;48.704;9.000;2023-08-08T11:48:42;19.30;62.40
9083;DHT22;4577;48.704;9.000;2023-08-08T11:51:08;19.20;58.10
9083;DHT22;4577;48.704;9.000;2023-08-08T11:53:35;19.30;58.80
9083;DHT22;4577;48.704;9.000;2023-08-08T11:56:02;19.20;58.90
9083;DHT22;4577;48.704;9.000;2023-08-08T11:58:29;19.40;59.90
9083;DHT22;4577;48.704;9.000;2023-08-08T12:00:56;19.50;60.50
9083;DHT22;4577;48.704;9.000;2023-08-08T12:03:24;19.50;60.90
9083;DHT22;4577;48.704;9.000;2023-08-08T12:05:51;19.60;60.40
9083;DHT22;4577;48.704;9.000;2023-08-08T12:08:18;19.60;60.60
9083;DHT22;4577;48.704;9.000;2023-08-08T12:10:49;19.70;60.30
9083;DHT22;4577;48.704;9.000;2023-08-08T12:13:23;19.80;61.40
9083;DHT22;4577;48.704;9.000;2023-08-08T12:15:52;19.80;62.50
9083;DHT22;4577;48.704;9.000;2023-08-08T12:18:19;19.90;60.90
9083;DHT22;4577;48.704;9.000;2023-08-08T12:20:45;19.80;62.90
9083;DHT22;4577;48.704;9.000;2023-08-08T12:23:12;19.70;61.70
9083;DHT22;4577;48.704;9.000;2023-08-08T12:28:04;19.40;60.60
9083;DHT22;4577;48.704;9.000;2023-08-08T12:30:30;19.40;60.40
9083;DHT22;4577;48.704;9.000;2023-08-08T12:32:57;19.60;60.50
9083;DHT22;4577;48.704;9.000;2023-08-08T12:35:22;19.70;60.70
9083;DHT22;4577;48.704;9.000;2023-08-08T12:37:52;19.70;60.90
9083;DHT22;4577;48.704;9.000;2023-08-08T12:40:17;19.70;61.50
9083;DHT22;4577;48.704;9.000;2023-08-08T12:42:43;19.80;60.90
9083;DHT22;4577;48.704;9.000;2023-08-08T12:45:09;19.90;61.70
9083;DHT22;4577;48.704;9.000;2023-08-08T12:47:36;20.00;60.00
9083;DHT22;4577;48.704;9.000;2023-08-08T12:50:06;20.00;61.10
9083;DHT22;4577;48.704;9.000;2023-08-08T12:52:33;19.90;60.40
9083;DHT22;4577;48.704;9.000;2023-08-08T12:54:59;19.80;60.80
9083;DHT22;4577;48.704;9.000;2023-08-08T12:57:25;19.80;61.10
9083;DHT22;4577;48.704;9.000;2023-08-08T12:59:50;19.60;61.50
9083;DHT22;4577;48.704;9.000;2023-08-08T13:02:16;19.40;62.80
9083;DHT22;4577;48.704;9.000;2023-08-08T13:04:42;19.40;63.20
9083;DHT22;4577;48.704;9.000;2023-08-08T13:07:09;19.30;63.60
9083;DHT22;4577;48.704;9.000;2023-08-08T13:09:35;19.30;64.70
9083;DHT22;4577;48.704;9.000;2023-08-08T13:12:01;19.40;65.80
9083;DHT22;4577;48.704;9.000;2023-08-08T13:14:26;19.40;65.50
9083;DHT22;4577;48.704;9.000;2023-08-08T13:16:52;19.50;65.10
9083;DHT22;4577;48.704;9.000;2023-08-08T13:19:19;19.60;66.70
9083;DHT22;4577;48.704;9.000;2023-08-08T13:24:13;19.50;65.10
9083;DHT22;4577;48.704;9.000;2023-08-08T13:26:39;19.50;64.20
9083;DHT22;4577;48.704;9.000;2023-08-08T13:29:05;19.50;65.00
9083;DHT22;4577;48.704;9.000;2023-08-08T13:31:31;19.50;66.40
9083;DHT22;4577;48.704;9.000;2023-08-08T13:33:56;19.50;66.80
9083;DHT22;4577;48.704;9.000;2023-08-08T13:36:22;19.40;67.20
9083;DHT22;4577;48.704;9.000;2023-08-08T13:38:48;19.30;67.70
9083;DHT22;4577;48.704;9.000;2023-08-08T13:41:13;19.40;68.90
9083;DHT22;4577;48.704;9.000;2023-08-08T13:43:39;19.50;68.80
9083;DHT22;4577;48.704;9.000;2023-08-08T13:46:05;19.60;68.80
9083;DHT22;4577;48.704;9.000;2023-08-08T13:48:33;19.70;65.30
9083;DHT22;4577;48.704;9.000;2023-08-08T13:51:00;19.90;62.70
9083;DHT22;4577;48.704;9.000;2023-08-08T13:53:25;19.90;65.10
9083;DHT22;4577;48.704;9.000;2023-08-08T14:00:50;19.90;65.10
9083;DHT22;4577;48.704;9.000;2023-08-08T14:03:16;20.30;64.30
9083;DHT22;4577;48.704;9.000;2023-08-08T14:05:41;20.20;64.00
9083;DHT22;4577;48.704;9.000;2023-08-08T14:08:09;20.40;60.50
9083;DHT22;4577;48.704;9.000;2023-08-08T14:10:35;20.40;61.40
9083;DHT22;4577;48.704;9.000;2023-08-08T14:13:01;20.20;60.40
9083;DHT22;4577;48.704;9.000;2023-08-08T14:15:27;20.20;60.60
9083;DHT22;4577;48.704;9.000;2023-08-08T14:17:54;20.30;59.40
9083;DHT22;4577;48.704;9.000;2023-08-08T14:20:20;20.40;60.00
9083;DHT22;4577;48.704;9.000;2023-08-08T14:22:46;20.10;60.80
9083;DHT22;4577;48.704;9.000;2023-08-08T14:25:13;19.80;60.90
9083;DHT22;4577;48.704;9.000;2023-08-08T14:27:38;19.80;62.80
9083;DHT22;4577;48.704;9.000;2023-08-08T14:30:04;19.80;64.30
9083;DHT22;4577;48.704;9.000;2023-08-08T14:32:30;19.80;64.80
9083;DHT22;4577;48.704;9.000;2023-08-08T14:39:48;20.10;64.70
9083;DHT22;4577;48.704;9.000;2023-08-08T14:42:14;19.90;64.10
9083;DHT22;4577;48.704;9.000;2023-08-08T14:44:40;19.70;65.30
9083;DHT22;4577;48.704;9.000;2023-08-08T14:47:06;19.80;65.40
9083;DHT22;4577;48.704;9.000;2023-08-08T14:49:32;18.70;62.50
9083;DHT22;4577;48.704;9.000;2023-08-08T14:51:57;19.70;64.30
9083;DHT22;4577;48.704;9.000;2023-08-08T14:54:23;19.70;65.50
9083;DHT22;4577;48.704;9.000;2023-08-08T14:56:49;19.60;64.00
9083;DHT22;4577;48.704;9.000;2023-08-08T14:59:16;19.50;64.40
9083;DHT22;4577;48.704;9.000;2023-08-08T15:01:42;19.40;63.50
9083;DHT22;4577;48.704;9.000;2023-08-08T15:04:08;19.30;64.50
9083;DHT22;4577;48.704;9.000;2023-08-08T15:06:36;19.40;64.40
9083;DHT22;4577;48.704;9.000;2023-08-08T15:11:29;19.80;63.30
9083;DHT22;4577;48.704;9.000;2023-08-08T15:13:55;20.00;63.10
9083;DHT22;4577;48.704;9.000;2023-08-08T15:16:21;19.90;63.00
9083;DHT22;4577;48.704;9.000;2023-08-08T15:18:47;20.10;63.90
9083;DHT22;4577;48.704;9.000;2023-08-08T15:21:12;20.10;63.70
9083;DHT22;4577;48.704;9.000;2023-08-08T15:23:39;20.20;65.30
9083;DHT22;4577;48.704;9.000;2023-08-08T15:26:05;20.10;64.20
9083;DHT22;4577;48.704;9.000;2023-08-08T15:28:30;20.10;64.40
9083;DHT22;4577;48.704;9.000;2023-08-08T15:30:56;19.90;64.50
9083;DHT22;4577;48.704;9.000;2023-08-08T15:33:22;19.80;65.00
9083;DHT22;4577;48.704;9.000;2023-08-08T15:35:48;20.00;65.40
9083;DHT22;4577;48.704;9.000;2023-08-08T15:40:41;19.60;65.00
9083;DHT22;4577;48.704;9.000;2023-08-08T15:45:33;19.50;66.00
9083;DHT22;4577;48.704;9.000;2023-08-08T15:47:59;19.20;65.70
9083;DHT22;4577;48.704;9.000;2023-08-08T15:50:24;19.40;66.50
9083;DHT22;4577;48.704;9.000;2023-08-08T15:52:50;19.40;67.20
9083;DHT22;4577;48.704;9.000;2023-08-08T15:55:20;19.40;67.20
9083;DHT22;4577;48.704;9.000;2023-08-08T15:57:47;19.40;67.20
9083;DHT22;4577;48.704;9.000;2023-08-08T16:02:41;19.40;67.20
9083;DHT22;4577;48.704;9.000;2023-08-08T16:05:07;19.50;67.70
9083;DHT22;4577;48.704;9.000;2023-08-08T16:07:33;19.60;66.90
9083;DHT22;4577;48.704;9.000;2023-08-08T16:10:00;19.50;65.60
9083;DHT22;4577;48.704;9.000;2023-08-08T16:12:27;19.50;65.80
9083;DHT22;4577;48.704;9.000;2023-08-08T16:14:53;19.50;65.70
9083;DHT22;4577;48.704;9.000;2023-08-08T16:17:18;19.60;65.60
9083;DHT22;4577;48.704;9.000;2023-08-08T16:19:44;19.50;65.60
9083;DHT22;4577;48.704;9.000;2023-08-08T16:22:10;19.80;66.60
9083;DHT22;4577;48.704;9.000;2023-08-08T16:24:35;19.50;66.40
9083;DHT22;4577;48.704;9.000;2023-08-08T16:27:01;19.50;67.00
9083;DHT22;4577;48.704;9.000;2023-08-08T16:29:27;19.50;67.20
9083;DHT22;4577;48.704;9.000;2023-08-08T16:31:52;19.40;67.20
9083;DHT22;4577;48.704;9.000;2023-08-08T16:34:18;19.40;67.60